Ruby, AK (99768)

1:53 AM AKDT on May 20, 2018 (GMT -0800)
Ruby | | Change Station

Elev 653 ft 64.73 °N, 155.47 °W | Updated 57 minutes ago

Partly Cloudy
Partly Cloudy
43 °F
Feels Like 41 °F
N
4
Wind Variable Wind from NW

Today
High -- | Low -- °F
--% Chance of Precip.
Yesterday
High -- | Low -- °F
Precip. -- in
Pressure 29.79 in
Visibility 10.0 miles
Clouds Few 7500 ft
Scattered Clouds 9500 ft
Windchill 41 °F
Dew Point 41 °F
Humidity 93%
Rainfall 0.01 in
Snow Depth Not available.
4:50 AM 11:54 PM
Waxing Crescent, 31% visible
METAR PARY 200856Z AUTO 32003KT 10SM FEW075 SCT095 06/05 A2969 RMK AO2 RAB03E31 SLP087 P0001 60003 T00610050 50004
Pressure 29.79 in
Visibility 10.0 miles
Clouds Few 7500 ft
Scattered Clouds 9500 ft
Windchill 41 °F
Dew Point 41 °F
Humidity 93%
Rainfall 0.01 in
Snow Depth Not available.
4:50 AM 11:54 PM
Waxing Crescent, 31% visible
METAR PARY 200856Z AUTO 32003KT 10SM FEW075 SCT095 06/05 A2969 RMK AO2 RAB03E31 SLP087 P0001 60003 T00610050 50004

Get Severe Weather Alerts

Thanks for signing up!

Be on the lookout for a verification email in your inbox.

You'll start receiving the daily forecast at 6 AM.

×

10-Day Weather Forecast

Almanac

Astronomy

May. 20, 2018 Rise Set
Actual Time
Civil Twilight
Nautical Twilight
Astronomical Twilight
Moon
Length of Visible Light
Length of Day
Tomorrow will be .
, % of the Moon is Illuminated

Today's Extremes

State Highs State Lows

Community

WunderPhotos

Category 6

Welcome to Category 6. This is the collective home for Weather Underground's featured writeups by Dr. Jeff Masters (right), Bob Henson (left), Chris Burt, and other regular contributors.

Nearby

Air Quality

  Air Quality AQ Index Pollutant
Not available.

Snow Depth

Station Depth Elevation

Earthquake Activity

City Distance Mag. Time & Date
Minimum magnitude displayed is 2.5.

Coastal Water Temperatures

Place Temperature

Stations

Nearby Weather Stations

Station Location Temp. Windchill Dew Point Humidity Wind Precip. Elev Updated Type
                   

Watches & Warnings

There are currently no watches in effect.